Terminal Aerodrome Forecast
Issued by NWS Milwaukee/Sullivan, WI

Home | Current Version | Previous Version | Text Only | Print | Product List | Glossary On
Versions: 1 2 3 4 5 6 7 8 9 10 11 12 13 14 15 16 17 18 19 20 21 22 23 24 25 26 27 28 29 30 31 32 33 34 35 36 37 38 39 40 41 42 43 44 45 46 47 48 49 50
000
FTUS43 KMKX 180520
TAFMSN
TAF
KMSN 180520Z 1806/1906 25004KT P6SM SKC
     FM181000 VRB03KT 3SM BR SCT140
     FM181300 16005KT 1SM BR SCT015 BKN110
     FM181500 17012KT P6SM SCT003 BKN130
     FM181800 17017G28KT P6SM SCT130
     FM190400 19010KT P6SM SCT250 WS020/22050KT=

USA.gov is the U.S. government's official web portal to all federal, state and local government web resources and services.